createdAt,value
2023-04-16T00:00:28.408Z,17.40
2023-04-16T00:02:57.964Z,16.80
2023-04-16T00:05:27.363Z,15.43
2023-04-16T00:07:56.299Z,15.38
2023-04-16T00:10:25.375Z,17.85
2023-04-16T00:12:54.571Z,15.15
2023-04-16T00:15:23.880Z,22.17
2023-04-16T00:17:54.665Z,21.15
2023-04-16T00:20:23.846Z,13.18
2023-04-16T00:22:52.984Z,18.65
2023-04-16T00:25:22.277Z,13.65
2023-04-16T00:27:51.529Z,18.52
2023-04-16T00:30:20.917Z,17.55
2023-04-16T00:32:50.329Z,20.70
2023-04-16T00:35:21.281Z,12.68
2023-04-16T00:37:50.463Z,19.15
2023-04-16T00:40:22.340Z,11.32
2023-04-16T00:42:51.828Z,12.60
2023-04-16T00:45:21.111Z,15.57
2023-04-16T00:47:52.531Z,10.02
2023-04-16T00:50:23.409Z,15.50
2023-04-16T00:55:24.108Z,15.15
2023-04-16T00:57:54.316Z,15.15
2023-04-16T01:00:23.901Z,23.02
2023-04-16T01:02:53.556Z,9.32
2023-04-16T01:05:24.060Z,17.10
2023-04-16T01:07:53.439Z,19.00
2023-04-16T01:10:22.674Z,10.93
2023-04-16T01:12:51.802Z,9.10
2023-04-16T01:15:21.239Z,13.15
2023-04-16T01:17:52.847Z,14.45
2023-04-16T01:20:23.317Z,11.55
2023-04-16T01:22:53.657Z,11.50
2023-04-16T01:25:22.780Z,11.30
2023-04-16T01:27:55.041Z,10.23
2023-04-16T01:30:26.579Z,13.93
2023-04-16T01:33:23.596Z,14.68
2023-04-16T01:35:52.590Z,19.38
2023-04-16T01:38:23.073Z,17.83
2023-04-16T01:40:52.239Z,12.60
2023-04-16T01:43:21.246Z,14.52
2023-04-16T01:45:50.285Z,10.27
2023-04-16T01:48:21.515Z,22.63
2023-04-16T01:50:52.820Z,15.15
2023-04-16T01:53:26.846Z,19.83
2023-04-16T01:55:55.779Z,16.42
2023-04-16T01:58:24.920Z,27.33
2023-04-16T02:00:53.988Z,19.20
2023-04-16T02:03:24.968Z,24.05
2023-04-16T02:05:55.151Z,23.13
2023-04-16T02:08:25.618Z,19.42
2023-04-16T02:10:54.795Z,11.77
2023-04-16T02:13:29.025Z,20.33
2023-04-16T02:15:58.550Z,25.38
2023-04-16T02:19:05.957Z,27.63
2023-04-16T02:21:41.855Z,16.02
2023-04-16T02:24:12.286Z,19.55
2023-04-16T02:26:41.754Z,23.10
2023-04-16T02:29:16.691Z,19.65
2023-04-16T02:31:51.583Z,23.75
2023-04-16T02:34:21.256Z,19.52
2023-04-16T02:36:50.314Z,31.77
2023-04-16T02:39:20.853Z,24.45
2023-04-16T02:41:49.770Z,22.73
2023-04-16T02:44:18.879Z,17.17
2023-04-16T02:46:48.145Z,23.13
2023-04-16T02:49:17.354Z,28.90
2023-04-16T02:51:46.481Z,21.15
2023-04-16T02:54:15.660Z,19.55
2023-04-16T02:56:46.003Z,21.90
2023-04-16T02:59:15.250Z,29.73
2023-04-16T03:01:45.107Z,13.27
2023-04-16T03:04:14.352Z,18.65
2023-04-16T03:06:43.462Z,30.05
2023-04-16T03:09:12.797Z,19.77
2023-04-16T03:11:41.977Z,20.83
2023-04-16T03:14:12.466Z,23.00
2023-04-16T03:19:13.326Z,12.30
2023-04-16T03:21:42.406Z,18.45
2023-04-16T03:24:11.732Z,18.40
2023-04-16T03:26:40.988Z,19.63
2023-04-16T03:29:10.846Z,11.38
2023-04-16T03:31:41.664Z,12.85
2023-04-16T03:34:10.904Z,20.73
2023-04-16T03:36:41.499Z,20.63
2023-04-16T03:39:10.681Z,21.95
2023-04-16T03:41:39.990Z,28.02
2023-04-16T03:44:09.103Z,17.23
2023-04-16T03:46:38.309Z,22.65
2023-04-16T03:49:09.642Z,16.85
2023-04-16T03:51:38.957Z,23.63
2023-04-16T03:54:08.167Z,22.00
2023-04-16T03:56:37.319Z,16.60
2023-04-16T03:59:08.975Z,17.08
2023-04-16T04:01:38.503Z,15.82
2023-04-16T04:04:10.178Z,15.55
2023-04-16T04:06:39.499Z,19.85
2023-04-16T04:09:11.113Z,13.93
2023-04-16T04:11:40.307Z,18.13
2023-04-16T04:14:12.268Z,13.23
2023-04-16T04:16:41.530Z,15.38
2023-04-16T04:19:12.567Z,21.13
2023-04-16T04:21:44.780Z,24.15
2023-04-16T04:24:21.363Z,21.42
2023-04-16T04:26:50.481Z,18.00
2023-04-16T04:29:19.544Z,21.23
2023-04-16T04:31:48.728Z,25.02
2023-04-16T04:34:20.100Z,21.00
2023-04-16T04:36:51.935Z,24.77
2023-04-16T04:39:22.100Z,14.23
2023-04-16T04:41:52.184Z,25.13
2023-04-16T04:44:22.159Z,18.52
2023-04-16T04:46:51.153Z,22.48
2023-04-16T04:49:22.696Z,17.17
2023-04-16T04:51:51.784Z,18.40
2023-04-16T04:54:21.190Z,19.50
2023-04-16T04:56:52.686Z,30.08
2023-04-16T04:59:22.268Z,17.60
2023-04-16T05:01:52.299Z,24.08
2023-04-16T05:04:22.774Z,22.10
2023-04-16T05:06:54.147Z,25.80
2023-04-16T05:09:23.548Z,21.02
2023-04-16T05:11:55.138Z,22.70
2023-04-16T05:14:24.469Z,36.03
2023-04-16T05:16:54.233Z,23.80
2023-04-16T05:19:24.864Z,19.38
2023-04-16T05:21:53.916Z,22.55
2023-04-16T05:24:23.735Z,19.80
2023-04-16T05:26:53.091Z,14.63
2023-04-16T05:29:22.545Z,19.90
2023-04-16T05:31:51.673Z,42.92
2023-04-16T05:34:21.502Z,34.92
2023-04-16T05:36:53.145Z,20.15
2023-04-16T05:39:23.424Z,17.40
2023-04-16T05:41:53.204Z,25.92
2023-04-16T05:44:23.323Z,20.75
2023-04-16T05:46:54.247Z,20.60
2023-04-16T05:49:24.571Z,32.15
2023-04-16T05:51:56.487Z,27.13
2023-04-16T05:54:27.742Z,19.80
2023-04-16T05:56:58.381Z,23.30
2023-04-16T05:59:28.519Z,22.27
2023-04-16T06:01:59.110Z,25.25
2023-04-16T06:04:30.207Z,27.15
2023-04-16T06:07:02.047Z,26.55
2023-04-16T06:09:32.191Z,20.75
2023-04-16T06:12:02.705Z,27.35
2023-04-16T06:14:32.742Z,22.83
2023-04-16T06:17:02.289Z,24.98
2023-04-16T06:19:31.609Z,26.88
2023-04-16T06:22:02.172Z,26.00
2023-04-16T06:24:34.160Z,37.72
2023-04-16T06:27:03.655Z,31.98
2023-04-16T06:29:40.315Z,26.23
2023-04-16T06:32:10.953Z,28.80
2023-04-16T06:34:40.154Z,21.98
2023-04-16T06:37:10.863Z,29.67
2023-04-16T06:39:39.884Z,21.77
2023-04-16T06:42:09.061Z,26.92
2023-04-16T06:44:38.172Z,23.60
2023-04-16T06:47:09.759Z,27.30
2023-04-16T06:49:39.971Z,31.55
2023-04-16T06:52:13.212Z,29.70
2023-04-16T06:54:42.429Z,24.05
2023-04-16T06:57:11.683Z,32.75
2023-04-16T06:59:40.850Z,28.08
2023-04-16T07:02:11.257Z,24.92
2023-04-16T07:04:42.702Z,26.00
2023-04-16T07:07:13.276Z,25.65
2023-04-16T07:09:42.459Z,23.27
2023-04-16T07:12:11.841Z,24.38
2023-04-16T07:14:41.163Z,19.77
2023-04-16T07:17:12.399Z,21.63
2023-04-16T07:19:42.781Z,17.95
2023-04-16T07:22:14.160Z,28.10
2023-04-16T07:24:44.157Z,27.13
2023-04-16T07:27:14.668Z,20.35
2023-04-16T07:29:45.998Z,20.70
2023-04-16T07:32:16.513Z,28.50
2023-04-16T07:34:49.586Z,31.42
2023-04-16T07:37:21.408Z,26.52
2023-04-16T07:39:51.986Z,27.17
2023-04-16T07:42:22.397Z,25.88
2023-04-16T07:44:53.136Z,34.10
2023-04-16T07:47:23.676Z,38.22
2023-04-16T07:49:55.096Z,33.90
2023-04-16T07:52:26.894Z,40.28
2023-04-16T07:54:57.270Z,33.58
2023-04-16T07:57:27.826Z,39.72
2023-04-16T07:59:57.250Z,36.17
2023-04-16T08:02:26.667Z,26.45
2023-04-16T08:04:56.147Z,29.17
2023-04-16T08:07:29.512Z,25.17
2023-04-16T08:09:58.723Z,25.02
2023-04-16T08:12:27.862Z,24.05
2023-04-16T08:15:00.080Z,31.83
2023-04-16T08:17:30.226Z,22.35
2023-04-16T08:19:59.506Z,34.83
2023-04-16T08:22:30.092Z,20.65
2023-04-16T08:24:59.277Z,28.33
2023-04-16T08:27:30.383Z,22.00
2023-04-16T08:29:59.460Z,28.70
2023-04-16T08:32:30.662Z,19.05
2023-04-16T08:34:59.874Z,20.13
2023-04-16T08:37:30.629Z,16.58
2023-04-16T08:39:59.644Z,21.05
2023-04-16T08:42:32.271Z,19.88
2023-04-16T08:45:08.753Z,28.67
2023-04-16T08:47:38.219Z,22.27
2023-04-16T08:50:10.147Z,21.20
2023-04-16T08:52:52.728Z,22.00
2023-04-16T08:55:27.973Z,23.63
2023-04-16T08:58:00.912Z,18.48
2023-04-16T09:00:31.461Z,21.90
2023-04-16T09:03:03.883Z,21.15
2023-04-16T09:05:36.234Z,29.60
2023-04-16T09:08:08.329Z,23.15
2023-04-16T09:10:37.294Z,21.00
2023-04-16T09:13:06.293Z,29.80
2023-04-16T09:15:36.930Z,24.75
2023-04-16T09:18:06.145Z,21.70
2023-04-16T09:20:39.873Z,22.75
2023-04-16T09:23:13.495Z,25.80
2023-04-16T09:25:45.969Z,24.90
2023-04-16T09:28:35.229Z,23.08
2023-04-16T09:31:13.337Z,21.77
2023-04-16T09:34:02.320Z,42.15
2023-04-16T09:36:32.635Z,17.83
2023-04-16T09:39:03.895Z,26.20
2023-04-16T09:41:36.060Z,26.60
2023-04-16T09:44:06.643Z,28.88
2023-04-16T09:46:36.913Z,24.27
2023-04-16T09:49:10.710Z,24.17
2023-04-16T09:51:42.587Z,18.85
2023-04-16T09:54:13.731Z,32.70
2023-04-16T09:56:43.822Z,25.35
2023-04-16T09:59:18.687Z,22.38
2023-04-16T10:01:53.543Z,24.48
2023-04-16T10:04:47.988Z,20.92
2023-04-16T10:07:20.971Z,26.38
2023-04-16T10:09:52.729Z,26.10
2023-04-16T10:12:22.056Z,22.67
2023-04-16T10:14:51.190Z,19.70
2023-04-16T10:17:20.757Z,26.60
2023-04-16T10:19:50.030Z,26.15
2023-04-16T10:22:19.057Z,23.02
2023-04-16T10:24:49.667Z,18.10
2023-04-16T10:27:22.565Z,24.60
2023-04-16T10:29:53.901Z,30.40
2023-04-16T10:32:28.717Z,31.50
2023-04-16T10:34:58.044Z,25.88
2023-04-16T10:37:32.973Z,26.23
2023-04-16T10:40:02.402Z,22.23
2023-04-16T10:42:33.643Z,23.83
2023-04-16T10:45:02.898Z,22.98
2023-04-16T10:47:31.910Z,29.30
2023-04-16T10:50:01.169Z,24.08
2023-04-16T10:52:31.335Z,21.17
2023-04-16T10:55:01.455Z,24.63
2023-04-16T10:57:32.472Z,23.73
2023-04-16T11:00:01.549Z,26.85
2023-04-16T11:02:31.100Z,20.73
2023-04-16T11:05:00.405Z,33.30
2023-04-16T11:07:35.390Z,25.45
2023-04-16T11:10:08.842Z,22.52
2023-04-16T11:15:10.793Z,25.38
2023-04-16T11:17:42.477Z,22.15
2023-04-16T11:20:18.943Z,22.15
2023-04-16T11:22:53.100Z,18.58
2023-04-16T11:25:22.897Z,50.35
2023-04-16T11:27:54.938Z,26.92
2023-04-16T11:30:31.386Z,25.60
2023-04-16T11:33:00.453Z,21.75
2023-04-16T11:35:29.867Z,25.65
2023-04-16T11:37:59.121Z,20.17
2023-04-16T11:40:31.873Z,29.45
2023-04-16T11:43:05.820Z,22.77
2023-04-16T11:45:35.017Z,22.25
2023-04-16T11:48:04.122Z,27.73
2023-04-16T11:50:33.251Z,22.10
2023-04-16T11:53:06.016Z,18.23
2023-04-16T11:55:45.520Z,31.53
2023-04-16T11:58:17.138Z,23.15
2023-04-16T12:00:47.662Z,15.75
2023-04-16T12:03:18.852Z,21.10
2023-04-16T12:05:49.930Z,23.92
2023-04-16T12:08:30.875Z,23.10
2023-04-16T12:10:59.741Z,21.38
2023-04-16T12:13:30.375Z,24.25
2023-04-16T12:15:59.084Z,23.13
2023-04-16T12:18:28.168Z,32.10
2023-04-16T12:20:56.939Z,31.92
2023-04-16T12:23:30.060Z,33.60
2023-04-16T12:26:10.802Z,28.42
2023-04-16T12:28:41.720Z,24.30
2023-04-16T12:31:11.256Z,20.60
2023-04-16T12:33:39.969Z,27.73
2023-04-16T12:36:18.985Z,27.23
2023-04-16T12:38:50.004Z,17.65
2023-04-16T12:41:18.801Z,28.00
2023-04-16T12:43:51.156Z,26.15
2023-04-16T12:46:22.737Z,26.60
2023-04-16T12:48:51.590Z,28.55
2023-04-16T12:51:20.571Z,29.52
2023-04-16T12:53:49.478Z,37.92
2023-04-16T12:56:18.299Z,29.83
2023-04-16T12:58:47.091Z,33.97
2023-04-16T13:01:17.472Z,27.75
2023-04-16T13:03:46.414Z,21.15
2023-04-16T13:06:16.371Z,22.02
2023-04-16T13:08:46.327Z,22.23
2023-04-16T13:11:17.647Z,25.93
2023-04-16T13:13:46.504Z,25.38
2023-04-16T13:16:15.378Z,26.10
2023-04-16T13:18:45.949Z,22.98
2023-04-16T13:21:14.834Z,23.25
2023-04-16T13:23:44.456Z,27.15
2023-04-16T13:26:15.552Z,33.25
2023-04-16T13:28:44.423Z,21.40
2023-04-16T13:31:13.274Z,24.70
2023-04-16T13:33:42.139Z,27.90
2023-04-16T13:36:12.243Z,27.50
2023-04-16T13:38:42.267Z,22.20
2023-04-16T13:41:13.707Z,23.10
2023-04-16T13:43:42.618Z,19.52
2023-04-16T13:46:11.503Z,27.58
2023-04-16T13:48:40.316Z,18.52
2023-04-16T13:51:09.364Z,26.65
2023-04-16T13:53:39.818Z,26.17
2023-04-16T13:56:12.094Z,28.05
2023-04-16T13:58:41.510Z,30.13
2023-04-16T14:01:11.063Z,29.55
2023-04-16T14:03:40.960Z,39.13
2023-04-16T14:06:10.080Z,40.38
2023-04-16T14:08:40.246Z,41.25
2023-04-16T14:11:09.312Z,26.95
2023-04-16T14:13:38.145Z,34.70
2023-04-16T14:16:09.689Z,30.17
2023-04-16T14:18:42.410Z,32.38
2023-04-16T14:21:11.280Z,34.17
2023-04-16T14:23:41.831Z,30.42
2023-04-16T14:26:11.088Z,27.02
2023-04-16T14:28:41.253Z,25.20
2023-04-16T14:31:10.090Z,23.67
2023-04-16T14:33:39.092Z,24.30
2023-04-16T14:36:08.566Z,22.70
2023-04-16T14:38:37.856Z,21.02
2023-04-16T14:41:08.341Z,23.40
2023-04-16T14:43:41.434Z,22.15
2023-04-16T14:46:10.656Z,19.80
2023-04-16T14:48:39.487Z,24.25
2023-04-16T14:51:08.269Z,21.92
2023-04-16T14:53:38.293Z,26.50
2023-04-16T14:56:08.943Z,38.63
2023-04-16T14:58:39.446Z,28.05
2023-04-16T15:01:09.145Z,24.85
2023-04-16T15:03:38.567Z,28.58
2023-04-16T15:06:08.574Z,25.52
2023-04-16T15:08:37.807Z,33.33
2023-04-16T15:11:10.799Z,27.95
2023-04-16T15:13:39.907Z,23.08
2023-04-16T15:16:08.944Z,30.65
2023-04-16T15:18:38.267Z,23.60
2023-04-16T15:21:07.338Z,28.58
2023-04-16T15:23:38.689Z,35.15
2023-04-16T15:26:07.835Z,29.95
2023-04-16T15:28:38.340Z,31.40
2023-04-16T15:31:08.563Z,27.55
2023-04-16T15:33:39.503Z,30.80
2023-04-16T15:36:09.341Z,39.83
2023-04-16T15:38:39.246Z,29.25
2023-04-16T15:41:12.327Z,33.13
2023-04-16T15:43:43.742Z,33.22
2023-04-16T15:46:15.211Z,43.83
2023-04-16T15:48:45.743Z,32.92
2023-04-16T15:51:15.968Z,29.98
2023-04-16T15:53:46.062Z,34.92
2023-04-16T15:56:16.640Z,29.25
2023-04-16T15:58:48.202Z,33.08
2023-04-16T16:01:18.866Z,33.28
2023-04-16T16:03:48.933Z,38.60
2023-04-16T16:06:21.093Z,34.60
2023-04-16T16:08:51.630Z,42.17
2023-04-16T16:11:21.595Z,36.83
2023-04-16T16:13:52.401Z,32.47
2023-04-16T16:16:22.023Z,40.00
2023-04-16T16:18:52.014Z,26.63
2023-04-16T16:21:21.318Z,31.15
2023-04-16T16:23:50.626Z,35.08
2023-04-16T16:26:20.843Z,29.80
2023-04-16T16:28:51.492Z,28.83
2023-04-16T16:31:21.049Z,29.98
2023-04-16T16:33:50.479Z,29.77
2023-04-16T16:36:19.706Z,28.10
2023-04-16T16:38:48.980Z,28.83
2023-04-16T16:41:18.071Z,32.67
2023-04-16T16:43:50.395Z,27.63
2023-04-16T16:46:21.092Z,29.95
2023-04-16T16:48:50.217Z,27.42
2023-04-16T16:51:19.281Z,40.58
2023-04-16T16:53:48.503Z,22.65
2023-04-16T16:56:17.621Z,25.52
2023-04-16T16:58:46.933Z,32.08
2023-04-16T17:01:16.132Z,25.60
2023-04-16T17:03:46.783Z,28.85
2023-04-16T17:06:18.467Z,25.48
2023-04-16T17:08:49.965Z,24.92
2023-04-16T17:11:20.074Z,28.38
2023-04-16T17:13:52.826Z,27.20
2023-04-16T17:16:24.744Z,30.75
2023-04-16T17:18:57.503Z,33.63
2023-04-16T17:21:28.626Z,32.88
2023-04-16T17:23:59.819Z,26.85
2023-04-16T17:26:30.049Z,21.48
2023-04-16T17:28:59.998Z,25.73
2023-04-16T17:31:30.129Z,36.58
2023-04-16T17:34:05.041Z,42.63
2023-04-16T17:36:37.723Z,54.83
2023-04-16T17:39:08.245Z,44.17
2023-04-16T17:41:38.059Z,46.72
2023-04-16T17:44:11.115Z,42.97
2023-04-16T17:46:41.900Z,46.22
2023-04-16T17:49:13.562Z,44.55
2023-04-16T17:51:44.709Z,41.38
2023-04-16T17:54:13.918Z,40.25
2023-04-16T17:56:43.318Z,46.95
2023-04-16T17:59:14.889Z,40.17
2023-04-16T18:01:44.592Z,42.15
2023-04-16T18:04:15.543Z,39.20
2023-04-16T18:06:45.439Z,44.08
2023-04-16T18:09:15.800Z,45.33
2023-04-16T18:11:45.027Z,49.78
2023-04-16T18:14:19.946Z,43.63
2023-04-16T18:17:11.049Z,42.00
2023-04-16T18:19:43.891Z,47.05
2023-04-16T18:22:13.975Z,43.17
2023-04-16T18:24:44.126Z,47.70
2023-04-16T18:27:15.466Z,36.30
2023-04-16T18:29:45.328Z,62.05
2023-04-16T18:32:14.189Z,43.70
2023-04-16T18:34:44.416Z,49.05
2023-04-16T18:37:15.427Z,47.93
2023-04-16T18:39:44.129Z,58.20
2023-04-16T18:42:12.949Z,53.65
2023-04-16T18:44:44.097Z,47.47
2023-04-16T18:47:14.499Z,54.75
2023-04-16T18:49:44.635Z,54.50
2023-04-16T18:52:13.422Z,55.17
2023-04-16T18:54:42.268Z,62.83
2023-04-16T18:57:11.022Z,56.65
2023-04-16T18:59:39.749Z,56.35
2023-04-16T19:02:11.193Z,54.30
2023-04-16T19:04:44.409Z,62.97
2023-04-16T19:07:15.737Z,49.53
2023-04-16T19:09:44.989Z,48.30
2023-04-16T19:12:16.960Z,48.67
2023-04-16T19:14:46.093Z,38.45
2023-04-16T19:17:15.228Z,42.35
2023-04-16T19:19:46.071Z,44.58
2023-04-16T19:22:15.255Z,40.22
2023-04-16T19:24:44.528Z,39.60
2023-04-16T19:27:13.886Z,38.63
2023-04-16T19:29:43.726Z,39.28
2023-04-16T19:32:14.149Z,32.45
2023-04-16T19:34:48.556Z,32.00
2023-04-16T19:37:17.586Z,29.80
2023-04-16T19:39:46.723Z,35.88
2023-04-16T19:42:15.895Z,37.78
2023-04-16T19:44:44.927Z,32.63
2023-04-16T19:47:14.040Z,30.73
2023-04-16T19:49:44.078Z,35.03
2023-04-16T19:52:14.847Z,39.03
2023-04-16T19:54:44.252Z,37.35
2023-04-16T19:57:13.756Z,40.67
2023-04-16T19:59:42.712Z,33.40
2023-04-16T20:02:11.824Z,37.83
2023-04-16T20:04:41.136Z,40.88
2023-04-16T20:07:12.470Z,41.45
2023-04-16T20:09:45.227Z,34.20
2023-04-16T20:12:14.493Z,46.95
2023-04-16T20:14:45.873Z,36.75
2023-04-16T20:17:19.730Z,42.95
2023-04-16T20:19:49.769Z,53.03
2023-04-16T20:22:18.939Z,52.58
2023-04-16T20:24:50.081Z,45.83
2023-04-16T20:27:21.689Z,51.95
2023-04-16T20:29:51.911Z,46.83
2023-04-16T20:32:21.222Z,47.10
2023-04-16T20:34:51.039Z,45.58
2023-04-16T20:37:22.720Z,45.70
2023-04-16T20:39:54.302Z,43.58
2023-04-16T20:42:26.466Z,46.53
2023-04-16T20:44:58.325Z,57.45
2023-04-16T20:47:28.447Z,47.88
2023-04-16T20:50:01.939Z,50.15
2023-04-16T20:52:31.159Z,47.10
2023-04-16T20:55:01.637Z,42.40
2023-04-16T20:57:32.182Z,44.30
2023-04-16T21:00:01.076Z,44.25
2023-04-16T21:02:30.336Z,44.08
2023-04-16T21:05:00.692Z,42.03
2023-04-16T21:07:29.915Z,50.30
2023-04-16T21:10:02.485Z,50.67
2023-04-16T21:12:31.675Z,49.15
2023-04-16T21:15:00.822Z,44.67
2023-04-16T21:17:30.185Z,47.13
2023-04-16T21:19:59.150Z,47.53
2023-04-16T21:22:28.249Z,47.55
2023-04-16T21:24:59.520Z,50.50
2023-04-16T21:27:30.268Z,39.88
2023-04-16T21:29:59.390Z,50.05
2023-04-16T21:32:28.492Z,51.00
2023-04-16T21:34:57.756Z,44.40
2023-04-16T21:37:27.103Z,51.47
2023-04-16T21:39:56.180Z,48.53
2023-04-16T21:42:25.453Z,42.25
2023-04-16T21:44:55.937Z,47.40
2023-04-16T21:47:25.515Z,46.67
2023-04-16T21:49:54.496Z,47.05
2023-04-16T21:52:27.890Z,37.13
2023-04-16T21:54:57.293Z,39.47
2023-04-16T21:57:26.873Z,41.05
2023-04-16T21:59:59.927Z,39.67
2023-04-16T22:02:29.129Z,32.35
2023-04-16T22:05:01.410Z,35.20
2023-04-16T22:07:30.771Z,34.63
2023-04-16T22:09:59.991Z,36.33
2023-04-16T22:12:29.719Z,34.58
2023-04-16T22:15:02.926Z,37.95
2023-04-16T22:17:32.680Z,34.45
2023-04-16T22:20:07.971Z,38.97
2023-04-16T22:22:37.054Z,35.40
2023-04-16T22:25:07.065Z,36.40
2023-04-16T22:27:36.381Z,37.42
2023-04-16T22:30:10.387Z,38.03
2023-04-16T22:32:42.013Z,38.35
2023-04-16T22:35:12.571Z,46.10
2023-04-16T22:37:41.541Z,35.65
2023-04-16T22:40:12.712Z,40.28
2023-04-16T22:42:41.917Z,39.47
2023-04-16T22:45:13.007Z,39.25
2023-04-16T22:47:42.160Z,42.13
2023-04-16T22:50:13.691Z,39.42
2023-04-16T22:52:42.691Z,46.75
2023-04-16T22:55:14.156Z,42.58
2023-04-16T22:57:45.532Z,44.75
2023-04-16T23:00:19.499Z,39.53
2023-04-16T23:02:50.831Z,52.47
2023-04-16T23:05:20.184Z,47.63
2023-04-16T23:07:49.303Z,48.80
2023-04-16T23:10:19.534Z,43.30
2023-04-16T23:12:48.587Z,43.05
2023-04-16T23:15:19.094Z,41.88
2023-04-16T23:17:51.419Z,50.78
2023-04-16T23:20:20.701Z,47.05
2023-04-16T23:22:49.656Z,46.78
2023-04-16T23:25:19.392Z,45.30
2023-04-16T23:27:48.481Z,44.55
2023-04-16T23:30:19.230Z,40.38
2023-04-16T23:32:50.683Z,43.40
2023-04-16T23:35:23.204Z,34.47
2023-04-16T23:37:54.701Z,46.03
2023-04-16T23:40:23.916Z,39.83
2023-04-16T23:42:53.228Z,39.17
2023-04-16T23:45:23.874Z,43.88
2023-04-16T23:47:53.201Z,49.53
2023-04-16T23:50:22.486Z,48.67
2023-04-16T23:52:51.645Z,45.72
2023-04-16T23:55:21.148Z,44.67
2023-04-16T23:57:50.292Z,49.92
